createdAt,value
2018-11-04T00:00:45.626Z,12.10
2018-11-04T00:03:14.269Z,12.53
2018-11-04T00:05:42.974Z,10.50
2018-11-04T00:08:11.686Z,11.00
2018-11-04T00:10:40.500Z,12.40
2018-11-04T00:13:09.169Z,9.90
2018-11-04T00:15:37.887Z,9.80
2018-11-04T00:18:07.460Z,10.53
2018-11-04T00:20:36.471Z,10.70
2018-11-04T00:23:05.182Z,10.37
2018-11-04T00:25:33.935Z,9.87
2018-11-04T00:28:02.655Z,10.70
2018-11-04T00:30:31.389Z,10.10
2018-11-04T00:33:00.165Z,9.77
2018-11-04T00:35:28.993Z,10.80
2018-11-04T00:37:58.041Z,10.07
2018-11-04T00:40:27.648Z,10.57
2018-11-04T00:42:56.290Z,9.63
2018-11-04T00:45:24.997Z,10.07
2018-11-04T00:47:53.653Z,12.53
2018-11-04T00:50:22.379Z,11.90
2018-11-04T00:52:51.145Z,9.87
2018-11-04T00:55:20.572Z,9.87
2018-11-04T00:57:49.520Z,10.57
2018-11-04T01:00:19.753Z,11.03
2018-11-04T01:02:49.955Z,12.63
2018-11-04T01:05:19.098Z,11.33
2018-11-04T01:07:47.859Z,11.67
2018-11-04T01:10:16.577Z,11.50
2018-11-04T01:12:45.719Z,10.30
2018-11-04T01:15:15.275Z,11.27
2018-11-04T01:17:44.427Z,9.93
2018-11-04T01:20:15.433Z,9.53
2018-11-04T01:22:44.602Z,9.50
2018-11-04T01:25:13.438Z,10.33
2018-11-04T01:27:43.021Z,10.50
2018-11-04T01:30:13.594Z,12.17
2018-11-04T01:32:42.391Z,11.97
2018-11-04T01:35:11.103Z,11.03
2018-11-04T01:37:39.790Z,12.00
2018-11-04T01:40:09.446Z,11.40
2018-11-04T01:42:38.320Z,13.93
2018-11-04T01:45:08.732Z,11.70
2018-11-04T01:47:37.458Z,10.87
2018-11-04T01:50:08.887Z,12.10
2018-11-04T01:52:37.749Z,11.37
2018-11-04T01:55:07.177Z,12.00
2018-11-04T01:57:36.190Z,13.77
2018-11-04T02:00:07.329Z,13.43
2018-11-04T02:02:36.090Z,10.40
2018-11-04T02:05:04.828Z,11.50
2018-11-04T02:07:33.604Z,11.20
2018-11-04T02:10:02.314Z,12.10
2018-11-04T02:12:31.019Z,10.90
2018-11-04T02:14:59.958Z,11.17
2018-11-04T02:17:28.694Z,12.43
2018-11-04T02:19:57.645Z,11.77
2018-11-04T02:22:26.343Z,12.57
2018-11-04T02:24:56.099Z,11.67
2018-11-04T02:27:24.805Z,10.83
2018-11-04T02:29:53.563Z,10.47
2018-11-04T02:32:22.396Z,8.67
2018-11-04T02:34:51.065Z,9.20
2018-11-04T02:37:19.884Z,8.83
2018-11-04T02:39:49.519Z,8.70
2018-11-04T02:42:18.171Z,10.27
2018-11-04T02:44:46.953Z,10.67
2018-11-04T02:47:15.648Z,10.60
2018-11-04T02:49:44.298Z,13.33
2018-11-04T02:52:13.857Z,10.30
2018-11-04T02:54:43.215Z,12.20
2018-11-04T02:57:11.933Z,14.27
2018-11-04T02:59:40.788Z,12.27
2018-11-04T03:02:10.335Z,12.70
2018-11-04T03:04:39.068Z,11.93
2018-11-04T03:07:08.687Z,12.03
2018-11-04T03:09:37.507Z,10.17
2018-11-04T03:12:06.419Z,9.13
2018-11-04T03:14:35.495Z,9.23
2018-11-04T03:17:09.477Z,9.97
2018-11-04T03:19:38.394Z,7.90
2018-11-04T03:22:07.294Z,9.60
2018-11-04T03:24:35.969Z,8.53
2018-11-04T03:27:04.915Z,9.20
2018-11-04T03:29:33.670Z,8.87
2018-11-04T03:32:03.556Z,11.30
2018-11-04T03:34:33.140Z,12.07
2018-11-04T03:37:02.088Z,10.67
2018-11-04T03:39:31.356Z,12.80
2018-11-04T03:42:00.024Z,15.57
2018-11-04T03:44:29.170Z,14.07
2018-11-04T03:46:57.820Z,15.87
2018-11-04T03:49:26.735Z,14.13
2018-11-04T03:51:55.372Z,13.63
2018-11-04T03:54:24.131Z,13.53
2018-11-04T03:56:54.656Z,13.10
2018-11-04T03:59:23.320Z,13.70
2018-11-04T04:01:52.057Z,13.23
2018-11-04T04:04:21.205Z,14.70
2018-11-04T04:06:50.214Z,11.70
2018-11-04T04:09:19.300Z,12.37
2018-11-04T04:11:48.013Z,12.60
2018-11-04T04:14:16.670Z,10.70
2018-11-04T04:16:45.483Z,13.30
2018-11-04T04:19:14.716Z,12.10
2018-11-04T04:21:43.492Z,11.83
2018-11-04T04:24:12.151Z,12.10
2018-11-04T04:26:41.140Z,10.50
2018-11-04T04:29:09.988Z,11.70
2018-11-04T04:31:38.640Z,11.37
2018-11-04T04:34:07.268Z,12.80
2018-11-04T04:36:35.927Z,11.80
2018-11-04T04:39:06.641Z,11.20
2018-11-04T04:41:35.553Z,11.30
2018-11-04T04:44:04.335Z,12.80
2018-11-04T04:46:33.239Z,13.70
2018-11-04T04:49:02.040Z,14.40
2018-11-04T04:51:30.959Z,12.40
2018-11-04T04:54:00.150Z,12.07
2018-11-04T04:56:28.840Z,13.00
2018-11-04T04:58:57.540Z,13.33
2018-11-04T05:01:26.218Z,12.27
2018-11-04T05:03:54.885Z,13.90
2018-11-04T05:06:23.560Z,13.63
2018-11-04T05:08:55.340Z,11.80
2018-11-04T05:11:24.017Z,13.47
2018-11-04T05:13:53.802Z,11.57
2018-11-04T05:16:22.505Z,11.90
2018-11-04T05:18:51.175Z,9.63
2018-11-04T05:21:19.928Z,8.70
2018-11-04T05:23:49.019Z,11.00
2018-11-04T05:26:17.613Z,11.40
2018-11-04T05:28:46.371Z,11.80
2018-11-04T05:31:15.083Z,17.17
2018-11-04T05:33:43.753Z,10.60
2018-11-04T05:36:12.559Z,11.73
2018-11-04T05:38:41.780Z,12.83
2018-11-04T05:41:10.440Z,10.40
2018-11-04T05:43:39.186Z,12.00
2018-11-04T05:46:07.985Z,11.87
2018-11-04T05:48:37.112Z,11.97
2018-11-04T05:51:06.659Z,10.90
2018-11-04T05:53:38.904Z,10.30
2018-11-04T05:56:08.612Z,13.27
2018-11-04T05:58:37.321Z,15.20
2018-11-04T06:01:07.097Z,11.47
2018-11-04T06:03:36.421Z,11.73
2018-11-04T06:06:05.759Z,12.70
2018-11-04T06:08:35.153Z,11.00
2018-11-04T06:11:04.314Z,13.27
2018-11-04T06:13:32.986Z,10.80
2018-11-04T06:16:01.720Z,10.77
2018-11-04T06:18:30.446Z,11.80
2018-11-04T06:20:59.090Z,10.83
2018-11-04T06:23:27.877Z,15.40
2018-11-04T06:25:57.070Z,13.60
2018-11-04T06:28:26.961Z,12.80
2018-11-04T06:30:55.814Z,11.63
2018-11-04T06:33:24.475Z,11.53
2018-11-04T06:35:53.302Z,11.57
2018-11-04T06:38:22.524Z,12.63
2018-11-04T06:40:51.248Z,11.80
2018-11-04T06:43:19.915Z,11.00
2018-11-04T06:45:48.656Z,9.87
2018-11-04T06:48:17.603Z,10.20
2018-11-04T06:50:46.995Z,10.30
2018-11-04T06:53:16.259Z,11.03
2018-11-04T06:55:44.854Z,11.83
2018-11-04T06:58:13.471Z,12.27
2018-11-04T07:00:42.176Z,10.83
2018-11-04T07:03:11.079Z,12.83
2018-11-04T07:05:40.081Z,11.77
2018-11-04T07:08:08.720Z,13.80
2018-11-04T07:10:37.899Z,17.03
2018-11-04T07:13:06.530Z,13.17
2018-11-04T07:15:35.144Z,14.70
2018-11-04T07:18:03.777Z,18.57
2018-11-04T07:20:32.459Z,19.87
2018-11-04T07:23:01.166Z,22.87
2018-11-04T07:25:29.931Z,19.20
2018-11-04T07:27:58.989Z,21.83
2018-11-04T07:30:28.178Z,22.87
2018-11-04T07:32:57.211Z,19.27
2018-11-04T07:35:26.218Z,20.60
2018-11-04T07:37:55.124Z,18.57
2018-11-04T07:40:23.748Z,15.70
2018-11-04T07:42:52.620Z,17.73
2018-11-04T07:45:21.508Z,23.27
2018-11-04T07:47:50.122Z,18.97
2018-11-04T07:50:18.828Z,22.07
2018-11-04T07:52:47.571Z,21.40
2018-11-04T07:55:16.227Z,20.47
2018-11-04T07:57:44.924Z,23.10
2018-11-04T08:00:15.252Z,18.90
2018-11-04T08:02:44.773Z,18.40
2018-11-04T08:05:13.777Z,20.10
2018-11-04T08:07:42.501Z,22.03
2018-11-04T08:10:12.873Z,20.90
2018-11-04T08:12:41.772Z,21.77
2018-11-04T08:15:11.245Z,22.60
2018-11-04T08:17:40.598Z,22.07
2018-11-04T08:20:10.846Z,23.33
2018-11-04T08:22:40.147Z,22.33
2018-11-04T08:25:08.861Z,21.83
2018-11-04T08:27:37.680Z,20.60
2018-11-04T08:30:07.837Z,22.77
2018-11-04T08:32:38.132Z,20.80
2018-11-04T08:35:08.533Z,21.20
2018-11-04T08:37:37.317Z,20.70
2018-11-04T08:40:06.903Z,18.83
2018-11-04T08:42:36.031Z,21.43
2018-11-04T08:45:06.256Z,18.27
2018-11-04T08:47:35.024Z,18.87
2018-11-04T08:50:04.105Z,21.33
2018-11-04T08:52:33.172Z,21.17
2018-11-04T08:55:01.765Z,21.07
2018-11-04T08:57:30.385Z,21.77
2018-11-04T08:59:59.491Z,19.20
2018-11-04T09:02:28.331Z,21.60
2018-11-04T09:04:58.532Z,19.40
2018-11-04T09:07:28.060Z,20.33
2018-11-04T09:09:56.822Z,20.90
2018-11-04T09:12:26.017Z,20.87
2018-11-04T09:14:54.889Z,19.73
2018-11-04T09:17:23.630Z,20.13
2018-11-04T09:19:52.837Z,20.13
2018-11-04T09:22:22.290Z,19.03
2018-11-04T09:24:52.040Z,19.33
2018-11-04T09:27:20.785Z,20.27
2018-11-04T09:29:50.093Z,21.23
2018-11-04T09:32:19.165Z,18.77
2018-11-04T09:34:47.811Z,20.93
2018-11-04T09:37:16.432Z,20.00
2018-11-04T09:39:45.322Z,18.40
2018-11-04T09:42:14.316Z,22.80
2018-11-04T09:44:43.012Z,19.67
2018-11-04T09:47:11.716Z,22.03
2018-11-04T09:49:40.892Z,20.87
2018-11-04T09:52:09.709Z,19.80
2018-11-04T09:54:38.672Z,18.53
2018-11-04T09:57:07.363Z,18.73
2018-11-04T09:59:36.711Z,21.80
2018-11-04T10:02:05.839Z,18.87
2018-11-04T10:04:34.555Z,20.03
2018-11-04T10:07:03.622Z,20.67
2018-11-04T10:09:32.498Z,21.40
2018-11-04T10:12:01.460Z,18.70
2018-11-04T10:14:30.238Z,18.90
2018-11-04T10:16:59.115Z,18.43
2018-11-04T10:19:27.799Z,22.70
2018-11-04T10:21:56.579Z,19.53
2018-11-04T10:24:25.234Z,20.97
2018-11-04T10:26:54.327Z,20.27
2018-11-04T10:29:23.309Z,21.43
2018-11-04T10:31:52.116Z,20.73
2018-11-04T10:34:21.656Z,20.27
2018-11-04T10:36:50.642Z,22.47
2018-11-04T10:39:19.893Z,20.57
2018-11-04T10:41:48.897Z,20.10
2018-11-04T10:44:18.472Z,20.40
2018-11-04T10:46:48.135Z,22.70
2018-11-04T10:49:17.189Z,21.37
2018-11-04T10:51:46.206Z,24.67
2018-11-04T10:54:15.422Z,19.33
2018-11-04T10:56:44.088Z,21.70
2018-11-04T10:59:12.896Z,20.47
2018-11-04T11:01:44.216Z,21.23
2018-11-04T11:04:14.537Z,21.97
2018-11-04T11:06:43.306Z,22.87
2018-11-04T11:09:13.541Z,25.80
2018-11-04T11:11:43.485Z,21.33
2018-11-04T11:14:13.937Z,24.57
2018-11-04T11:16:42.947Z,21.03
2018-11-04T11:19:11.574Z,22.27
2018-11-04T11:21:40.495Z,22.67
2018-11-04T11:24:09.864Z,23.30
2018-11-04T11:26:39.470Z,25.57
2018-11-04T11:29:08.927Z,25.80
2018-11-04T11:31:39.945Z,25.00
2018-11-04T11:34:10.840Z,25.67
2018-11-04T11:36:39.732Z,25.80
2018-11-04T11:39:10.803Z,22.93
2018-11-04T11:41:39.561Z,24.83
2018-11-04T11:44:08.319Z,23.20
2018-11-04T11:46:37.144Z,20.53
2018-11-04T11:49:06.828Z,23.23
2018-11-04T11:51:36.065Z,22.87
2018-11-04T11:54:05.084Z,22.33
2018-11-04T11:56:35.139Z,23.83
2018-11-04T11:59:04.663Z,21.33
2018-11-04T12:01:33.525Z,22.43
2018-11-04T12:04:02.868Z,23.43
2018-11-04T12:06:31.704Z,21.47
2018-11-04T12:09:01.000Z,21.73
2018-11-04T12:11:30.005Z,20.23
2018-11-04T12:13:59.101Z,23.83
2018-11-04T12:16:28.181Z,24.03
2018-11-04T12:18:56.940Z,21.13
2018-11-04T12:21:25.717Z,22.10
2018-11-04T12:23:54.876Z,23.30
2018-11-04T12:26:23.901Z,24.00
2018-11-04T12:28:52.885Z,24.33
2018-11-04T12:31:21.644Z,23.93
2018-11-04T12:33:50.309Z,20.73
2018-11-04T12:36:19.008Z,21.73
2018-11-04T12:38:47.778Z,22.00
2018-11-04T12:41:16.453Z,18.13
2018-11-04T12:43:45.986Z,20.03
2018-11-04T12:46:14.887Z,24.77
2018-11-04T12:48:43.710Z,20.37
2018-11-04T12:51:12.945Z,19.23
2018-11-04T12:53:42.150Z,18.97
2018-11-04T12:56:11.140Z,18.73
2018-11-04T12:58:40.017Z,18.50
2018-11-04T13:01:09.104Z,17.97
2018-11-04T13:03:38.382Z,17.57
2018-11-04T13:06:08.009Z,19.33
2018-11-04T13:08:36.748Z,18.30
2018-11-04T13:11:05.979Z,18.43
2018-11-04T13:13:34.712Z,16.33
2018-11-04T13:16:03.400Z,18.27
2018-11-04T13:18:32.104Z,14.80
2018-11-04T13:21:01.811Z,18.17
2018-11-04T13:23:30.487Z,14.83
2018-11-04T13:25:59.351Z,16.27
2018-11-04T13:28:28.073Z,16.87
2018-11-04T13:31:01.129Z,16.07
2018-11-04T13:33:30.396Z,15.90
2018-11-04T13:36:02.109Z,17.37
2018-11-04T13:38:34.597Z,14.93
2018-11-04T13:41:03.340Z,14.27
2018-11-04T13:43:39.707Z,13.63
2018-11-04T13:46:08.631Z,16.17
2018-11-04T13:48:37.850Z,13.70
2018-11-04T13:51:06.674Z,15.13
2018-11-04T13:53:35.812Z,16.57
2018-11-04T13:56:05.272Z,17.57
2018-11-04T13:58:34.058Z,16.80
2018-11-04T14:01:03.984Z,14.37
2018-11-04T14:03:33.136Z,15.53
2018-11-04T14:06:02.780Z,16.47
2018-11-04T14:08:31.557Z,17.13
2018-11-04T14:11:00.447Z,18.17
2018-11-04T14:13:30.687Z,17.23
2018-11-04T14:15:59.895Z,15.03
2018-11-04T14:18:29.396Z,17.93
2018-11-04T14:20:58.497Z,17.37
2018-11-04T14:23:27.316Z,16.10
2018-11-04T14:25:56.557Z,18.33
2018-11-04T14:28:25.279Z,16.30
2018-11-04T14:30:54.948Z,16.00
2018-11-04T14:33:24.561Z,14.50
2018-11-04T14:35:53.415Z,16.40
2018-11-04T14:38:22.842Z,17.27
2018-11-04T14:40:51.607Z,16.77
2018-11-04T14:43:21.045Z,18.80
2018-11-04T14:45:50.483Z,17.40
2018-11-04T14:48:26.744Z,16.97
2018-11-04T14:50:55.434Z,17.00
2018-11-04T14:53:30.476Z,16.77
2018-11-04T14:56:00.769Z,18.53
2018-11-04T14:58:34.053Z,16.20
2018-11-04T15:01:13.836Z,15.63
2018-11-04T15:03:46.416Z,16.87
2018-11-04T15:06:15.769Z,18.53
2018-11-04T15:08:44.995Z,17.13
2018-11-04T15:11:13.936Z,22.80
2018-11-04T15:13:44.813Z,21.03
2018-11-04T15:16:15.236Z,19.27
2018-11-04T15:18:44.031Z,17.67
2018-11-04T15:21:12.765Z,19.07
2018-11-04T15:23:42.588Z,20.57
2018-11-04T15:26:12.794Z,17.17
2018-11-04T15:28:41.607Z,15.70
2018-11-04T15:31:11.052Z,18.57
2018-11-04T15:33:39.770Z,15.83
2018-11-04T15:36:08.631Z,17.83
2018-11-04T15:38:37.424Z,28.03
2018-11-04T15:41:06.847Z,24.57
2018-11-04T15:43:36.453Z,18.13
2018-11-04T15:46:05.650Z,15.67
2018-11-04T15:48:36.203Z,18.07
2018-11-04T15:51:06.476Z,18.00
2018-11-04T15:53:35.205Z,16.97
2018-11-04T15:56:03.985Z,15.27
2018-11-04T15:58:35.375Z,15.70
2018-11-04T16:01:04.138Z,16.40
2018-11-04T16:03:33.772Z,15.67
2018-11-04T16:06:08.876Z,15.27
2018-11-04T16:08:38.983Z,14.33
2018-11-04T16:11:07.670Z,13.77
2018-11-04T16:13:36.352Z,14.13
2018-11-04T16:16:05.628Z,13.43
2018-11-04T16:18:34.339Z,13.20
2018-11-04T16:21:03.147Z,15.07
2018-11-04T16:23:32.627Z,14.27
2018-11-04T16:26:02.058Z,14.47
2018-11-04T16:28:30.735Z,15.40
2018-11-04T16:30:59.415Z,12.13
2018-11-04T16:33:32.320Z,15.13
2018-11-04T16:36:02.778Z,12.93
2018-11-04T16:38:32.137Z,12.33
2018-11-04T16:41:06.197Z,13.87
2018-11-04T16:43:37.869Z,11.90
2018-11-04T16:46:06.764Z,14.03
2018-11-04T16:48:35.468Z,13.40
2018-11-04T16:51:04.580Z,16.93
2018-11-04T16:53:35.265Z,13.97
2018-11-04T16:56:06.846Z,15.10
2018-11-04T16:58:35.643Z,13.93
2018-11-04T17:01:04.830Z,13.97
2018-11-04T17:03:33.528Z,11.70
2018-11-04T17:06:05.104Z,13.43
2018-11-04T17:08:33.848Z,15.53
2018-11-04T17:11:02.512Z,14.03
2018-11-04T17:13:31.490Z,13.10
2018-11-04T17:16:00.492Z,15.03
2018-11-04T17:18:29.185Z,13.07
2018-11-04T17:20:58.223Z,16.10
2018-11-04T17:23:27.193Z,14.63
2018-11-04T17:25:56.171Z,15.33
2018-11-04T17:28:24.980Z,13.07
2018-11-04T17:30:53.715Z,13.27
2018-11-04T17:33:22.607Z,12.27
2018-11-04T17:35:51.327Z,12.43
2018-11-04T17:38:20.003Z,13.33
2018-11-04T17:40:51.934Z,12.90
2018-11-04T17:43:20.772Z,12.73
2018-11-04T17:45:49.436Z,15.20
2018-11-04T17:48:18.400Z,12.97
2018-11-04T17:50:47.137Z,12.87
2018-11-04T17:53:16.175Z,13.07
2018-11-04T17:55:44.900Z,13.03
2018-11-04T17:58:15.379Z,12.87
2018-11-04T18:00:44.439Z,10.97
2018-11-04T18:03:19.404Z,12.10
2018-11-04T18:05:53.638Z,11.83
2018-11-04T18:08:22.512Z,11.10
2018-11-04T18:10:51.255Z,11.90
2018-11-04T18:13:20.188Z,11.80
2018-11-04T18:15:48.945Z,14.83
2018-11-04T18:18:18.464Z,17.77
2018-11-04T18:20:47.491Z,15.43
2018-11-04T18:23:16.546Z,13.67
2018-11-04T18:25:46.873Z,12.53
2018-11-04T18:28:15.984Z,11.60
2018-11-04T18:30:44.681Z,12.07
2018-11-04T18:33:13.428Z,12.93
2018-11-04T18:35:42.180Z,12.83
2018-11-04T18:38:10.881Z,13.77
2018-11-04T18:40:39.931Z,13.07
2018-11-04T18:43:08.604Z,14.37
2018-11-04T18:45:37.257Z,13.37
2018-11-04T18:48:06.172Z,14.37
2018-11-04T18:50:35.185Z,12.87
2018-11-04T18:53:05.468Z,15.83
2018-11-04T18:55:35.271Z,14.53
2018-11-04T18:58:04.045Z,14.60
2018-11-04T19:00:33.067Z,14.90
2018-11-04T19:03:01.812Z,14.43
2018-11-04T19:05:30.815Z,18.43
2018-11-04T19:07:59.632Z,18.23
2018-11-04T19:10:29.015Z,15.83
2018-11-04T19:12:58.058Z,16.50
2018-11-04T19:15:26.881Z,17.00
2018-11-04T19:17:55.580Z,17.23
2018-11-04T19:20:24.302Z,17.27
2018-11-04T19:22:53.270Z,15.83
2018-11-04T19:25:22.050Z,17.30
2018-11-04T19:27:50.695Z,17.13
2018-11-04T19:30:19.735Z,19.53
2018-11-04T19:32:48.667Z,15.53
2018-11-04T19:35:18.228Z,20.67
2018-11-04T19:37:47.655Z,17.83
2018-11-04T19:40:17.761Z,15.83
2018-11-04T19:42:46.851Z,14.07
2018-11-04T19:45:15.645Z,16.87
2018-11-04T19:47:44.459Z,21.17
2018-11-04T19:50:14.304Z,17.63
2018-11-04T19:52:44.413Z,16.87
2018-11-04T19:55:13.977Z,16.10
2018-11-04T19:57:42.683Z,16.90
2018-11-04T20:00:12.566Z,19.17
2018-11-04T20:02:41.334Z,18.23
2018-11-04T20:05:11.172Z,18.00
2018-11-04T20:07:43.561Z,16.33
2018-11-04T20:10:15.600Z,18.70
2018-11-04T20:12:49.849Z,16.20
2018-11-04T20:15:18.787Z,17.67
2018-11-04T20:17:48.843Z,17.53
2018-11-04T20:20:21.326Z,16.17
2018-11-04T20:22:49.965Z,15.37
2018-11-04T20:25:23.987Z,16.67
2018-11-04T20:27:52.823Z,17.67
2018-11-04T20:30:21.565Z,19.23
2018-11-04T20:32:55.503Z,16.43
2018-11-04T20:35:24.555Z,18.23
2018-11-04T20:37:53.401Z,16.27
2018-11-04T20:40:27.296Z,18.60
2018-11-04T20:42:56.276Z,14.87
2018-11-04T20:45:25.955Z,18.17
2018-11-04T20:48:00.385Z,16.50
2018-11-04T20:50:34.328Z,14.70
2018-11-04T20:53:03.074Z,18.50
2018-11-04T20:55:37.255Z,17.23
2018-11-04T20:58:06.111Z,18.30
2018-11-04T21:00:34.685Z,16.70
2018-11-04T21:03:04.311Z,18.07
2018-11-04T21:05:33.099Z,18.00
2018-11-04T21:08:01.909Z,15.80
2018-11-04T21:10:30.677Z,16.37
2018-11-04T21:12:59.329Z,17.10
2018-11-04T21:15:28.013Z,15.17
2018-11-04T21:17:56.701Z,17.33
2018-11-04T21:20:25.744Z,18.30
2018-11-04T21:22:54.487Z,15.87
2018-11-04T21:25:23.996Z,16.27
2018-11-04T21:27:52.659Z,14.70
2018-11-04T21:30:21.298Z,15.23
2018-11-04T21:32:49.994Z,15.90
2018-11-04T21:35:19.492Z,15.57
2018-11-04T21:37:48.287Z,15.53
2018-11-04T21:40:17.074Z,16.07
2018-11-04T21:42:46.184Z,16.13
2018-11-04T21:45:18.962Z,16.50
2018-11-04T21:47:47.960Z,17.90
2018-11-04T21:50:20.419Z,14.03
2018-11-04T21:52:49.646Z,15.50
2018-11-04T21:55:18.868Z,14.30
2018-11-04T21:57:47.629Z,14.53
2018-11-04T22:00:17.670Z,16.00
2018-11-04T22:02:47.328Z,14.53
2018-11-04T22:05:16.748Z,14.83
2018-11-04T22:07:45.474Z,16.10
2018-11-04T22:10:17.016Z,14.03
2018-11-04T22:12:45.874Z,15.73
2018-11-04T22:15:15.132Z,15.00
2018-11-04T22:17:43.816Z,14.97
2018-11-04T22:20:13.636Z,14.73
2018-11-04T22:22:42.354Z,14.90
2018-11-04T22:25:11.580Z,16.00
2018-11-04T22:27:40.316Z,16.77
2018-11-04T22:30:11.232Z,18.07
2018-11-04T22:32:40.391Z,15.53
2018-11-04T22:35:10.752Z,14.33
2018-11-04T22:37:39.749Z,17.53
2018-11-04T22:40:09.757Z,14.53
2018-11-04T22:42:39.910Z,17.13
2018-11-04T22:45:10.210Z,16.07
2018-11-04T22:47:39.848Z,15.10
2018-11-04T22:50:10.708Z,15.93
2018-11-04T22:52:39.957Z,17.13
2018-11-04T22:55:09.168Z,18.03
2018-11-04T22:57:38.585Z,17.40
2018-11-04T23:00:13.568Z,16.33
2018-11-04T23:02:42.600Z,15.00
2018-11-04T23:05:16.844Z,17.73
2018-11-04T23:07:45.823Z,13.27
2018-11-04T23:10:14.748Z,14.80
2018-11-04T23:12:43.631Z,13.47
2018-11-04T23:15:12.600Z,16.23
2018-11-04T23:17:41.506Z,14.47
2018-11-04T23:20:10.529Z,17.07
2018-11-04T23:22:39.822Z,17.97
2018-11-04T23:25:10.970Z,16.27
2018-11-04T23:27:40.459Z,14.27
2018-11-04T23:30:12.363Z,16.47
2018-11-04T23:32:42.097Z,15.10
2018-11-04T23:35:11.423Z,16.87
2018-11-04T23:37:40.450Z,15.77
2018-11-04T23:40:10.046Z,15.17
2018-11-04T23:42:39.460Z,16.20
2018-11-04T23:45:11.723Z,16.33
2018-11-04T23:47:41.852Z,15.67
2018-11-04T23:50:14.799Z,15.47
2018-11-04T23:52:45.370Z,15.03
2018-11-04T23:55:14.778Z,16.87
2018-11-04T23:57:43.820Z,16.07
